Weather at Chester County G O Carlson Airport

Public forecast

Using degrees Fahrenheit for public forecast. Weather courtesy of forecast.io.

Current aviation weather report (METAR) for Chester County G O Carlson Airport

Retrieved 2021/01/25 15:35 UTC (36 minutes ago):

KMQS 251535Z AUTO 00000KT 10SM BKN037 OVC050 M01/M11 A3014 RMK AO2

Closest aviation forecast (TAF) to Chester County G O Carlson Airport

Closest forecast is Lancaster Airport, 21.6 nm (39.9 km) WNW. Retrieved 2021/01/25 12:48 UTC (3 hours ago):

TAF KLNS 251120Z 2512/2612 08004KT P6SM BKN040 FM260600 09007KT 5SM -SNPL OVC020